RYS4R EPKT-LGRP
Flight info
| Callsign | RYS4R |
|---|---|
| Flight time | N/A |
| Altitude | 37000 |
| Route | REGTO T195 RAZEC N133 KEKED DCT PERIT DCT NARKA DCT LOMOS DCT NIKTI DCT MES UN139 LURUS UL995 CODIC |
| Aircraft | B738/M-SDFGIJ1LRWY/SB1 |
Departure
| Time | N/A |
|---|---|
| Airport | Katowice Wojciech Korfanty International Airport (EPKT) |
Arrival
| Time | 2026-05-08 02:41 |
|---|---|
| Airport | Rhodes International Airport "Diagoras" (LGRP) |
| Time | Latitude | Longitude | Altitude | Speed | Heading |
|---|---|---|---|---|---|
| 2026-05-08 01:20 | 44.93054 | 22.82178 | 37043 ft | 445 kts | 170° |
| 2026-05-08 01:21 | 44.90103 | 22.83350 | 37036 ft | 444 kts | 170° |
| 2026-05-08 01:21 | 44.84137 | 22.85718 | 37041 ft | 444 kts | 170° |
| 2026-05-08 01:22 | 44.78230 | 22.88052 | 37038 ft | 445 kts | 170° |
| 2026-05-08 01:22 | 44.72263 | 22.90406 | 37041 ft | 450 kts | 169° |
| 2026-05-08 01:23 | 44.66153 | 22.92801 | 37037 ft | 463 kts | 169° |
| 2026-05-08 01:23 | 44.59905 | 22.95248 | 37036 ft | 467 kts | 169° |
| 2026-05-08 01:24 | 44.53683 | 22.97698 | 37036 ft | 465 kts | 169° |
| 2026-05-08 01:24 | 44.47486 | 23.00135 | 37035 ft | 464 kts | 169° |
| 2026-05-08 01:25 | 44.41244 | 23.02575 | 37034 ft | 467 kts | 170° |
| 2026-05-08 01:25 | 44.34973 | 23.05016 | 37028 ft | 467 kts | 170° |
| 2026-05-08 01:26 | 44.28751 | 23.07439 | 37028 ft | 468 kts | 169° |
| 2026-05-08 01:26 | 44.22467 | 23.09881 | 37026 ft | 467 kts | 169° |
| 2026-05-08 01:27 | 44.16199 | 23.12303 | 37028 ft | 469 kts | 169° |
| 2026-05-08 01:27 | 44.09966 | 23.14708 | 37028 ft | 468 kts | 170° |
| 2026-05-08 01:28 | 44.03696 | 23.17126 | 37025 ft | 467 kts | 170° |
| 2026-05-08 01:28 | 43.97430 | 23.19539 | 37033 ft | 469 kts | 170° |
| 2026-05-08 01:29 | 43.91152 | 23.21950 | 37028 ft | 469 kts | 169° |
| 2026-05-08 01:29 | 43.84871 | 23.24353 | 37028 ft | 470 kts | 170° |
| 2026-05-08 01:30 | 43.78563 | 23.26789 | 37036 ft | 472 kts | 169° |
| 2026-05-08 01:30 | 43.72286 | 23.29274 | 37051 ft | 472 kts | 169° |
| 2026-05-08 01:31 | 43.65976 | 23.31781 | 37051 ft | 472 kts | 169° |
| 2026-05-08 01:31 | 43.59689 | 23.34265 | 37055 ft | 472 kts | 169° |
| 2026-05-08 01:32 | 43.53380 | 23.36747 | 37051 ft | 470 kts | 169° |
| 2026-05-08 01:32 | 43.47070 | 23.39219 | 37063 ft | 474 kts | 170° |
| 2026-05-08 01:33 | 43.40787 | 23.41675 | 37068 ft | 474 kts | 169° |
| 2026-05-08 01:33 | 43.34419 | 23.44159 | 37066 ft | 475 kts | 169° |
| 2026-05-08 01:34 | 43.28124 | 23.46609 | 37063 ft | 474 kts | 169° |
| 2026-05-08 01:34 | 43.21773 | 23.49069 | 37076 ft | 477 kts | 169° |
| 2026-05-08 01:35 | 43.15405 | 23.51536 | 37087 ft | 475 kts | 170° |
| 2026-05-08 01:35 | 43.09041 | 23.53997 | 37099 ft | 477 kts | 170° |
| 2026-05-08 01:36 | 43.02666 | 23.56457 | 37106 ft | 476 kts | 170° |
| 2026-05-08 01:36 | 42.96323 | 23.58900 | 37117 ft | 477 kts | 170° |
| 2026-05-08 01:37 | 42.89936 | 23.61353 | 37110 ft | 478 kts | 170° |
| 2026-05-08 01:37 | 42.83533 | 23.63807 | 37102 ft | 480 kts | 171° |
| 2026-05-08 01:38 | 42.77126 | 23.66260 | 37103 ft | 478 kts | 171° |
| 2026-05-08 01:38 | 42.70729 | 23.68705 | 37109 ft | 479 kts | 171° |
| 2026-05-08 01:39 | 42.64348 | 23.71136 | 37106 ft | 478 kts | 171° |
| 2026-05-08 01:39 | 42.57901 | 23.73582 | 37102 ft | 477 kts | 171° |
| 2026-05-08 01:40 | 42.51521 | 23.76001 | 37109 ft | 480 kts | 171° |
| 2026-05-08 01:40 | 42.45102 | 23.78427 | 37109 ft | 479 kts | 171° |
| 2026-05-08 01:41 | 42.38691 | 23.80848 | 37114 ft | 480 kts | 171° |
| 2026-05-08 01:41 | 42.32280 | 23.83263 | 37111 ft | 480 kts | 171° |
| 2026-05-08 01:42 | 42.25848 | 23.85680 | 37111 ft | 481 kts | 172° |
| 2026-05-08 01:42 | 42.19394 | 23.88101 | 37111 ft | 481 kts | 172° |
| 2026-05-08 01:43 | 42.12948 | 23.90512 | 37108 ft | 482 kts | 172° |
| 2026-05-08 01:43 | 42.06534 | 23.92910 | 37103 ft | 482 kts | 172° |
| 2026-05-08 01:44 | 42.00032 | 23.95330 | 37104 ft | 484 kts | 172° |
| 2026-05-08 01:44 | 41.93572 | 23.97734 | 37108 ft | 483 kts | 172° |
| 2026-05-08 01:45 | 41.87116 | 24.00129 | 37112 ft | 485 kts | 172° |
| 2026-05-08 01:45 | 41.80613 | 24.02542 | 37121 ft | 482 kts | 172° |
| 2026-05-08 01:46 | 41.74165 | 24.04928 | 37149 ft | 480 kts | 172° |
| 2026-05-08 01:46 | 41.67714 | 24.07310 | 37128 ft | 484 kts | 172° |
| 2026-05-08 01:47 | 41.61255 | 24.09687 | 37123 ft | 481 kts | 172° |
| 2026-05-08 01:47 | 41.54832 | 24.12115 | 37118 ft | 484 kts | 169° |
| 2026-05-08 01:48 | 41.45348 | 24.17102 | 37116 ft | 493 kts | 163° |
| 2026-05-08 01:48 | 41.39064 | 24.20796 | 37120 ft | 493 kts | 163° |
| 2026-05-08 01:49 | 41.32810 | 24.24453 | 37116 ft | 492 kts | 163° |
| 2026-05-08 01:49 | 41.26559 | 24.28045 | 37107 ft | 492 kts | 164° |
| 2026-05-08 01:50 | 41.20225 | 24.31642 | 37093 ft | 493 kts | 164° |
| 2026-05-08 01:50 | 41.13939 | 24.35194 | 37081 ft | 494 kts | 164° |
| 2026-05-08 01:51 | 41.07625 | 24.38750 | 37077 ft | 490 kts | 165° |
| 2026-05-08 01:51 | 41.01366 | 24.42258 | 37073 ft | 494 kts | 164° |
| 2026-05-08 01:52 | 40.95011 | 24.45817 | 37075 ft | 495 kts | 165° |
| 2026-05-08 01:52 | 40.88681 | 24.49355 | 37074 ft | 493 kts | 164° |
| 2026-05-08 01:53 | 40.82370 | 24.52879 | 37072 ft | 495 kts | 164° |
| 2026-05-08 01:53 | 40.76003 | 24.56423 | 37072 ft | 498 kts | 164° |
| 2026-05-08 01:54 | 40.69657 | 24.59952 | 37070 ft | 499 kts | 164° |
| 2026-05-08 01:54 | 40.63273 | 24.63493 | 37067 ft | 498 kts | 165° |
| 2026-05-08 01:55 | 40.56903 | 24.67018 | 37065 ft | 493 kts | 165° |
| 2026-05-08 01:55 | 40.50533 | 24.70530 | 37060 ft | 498 kts | 165° |
| 2026-05-08 01:56 | 40.44147 | 24.74051 | 37058 ft | 497 kts | 165° |
| 2026-05-08 01:56 | 40.37775 | 24.77555 | 37056 ft | 500 kts | 165° |
| 2026-05-08 01:57 | 40.31354 | 24.81073 | 37055 ft | 501 kts | 165° |
| 2026-05-08 01:57 | 40.24933 | 24.84594 | 37054 ft | 498 kts | 165° |
| 2026-05-08 01:58 | 40.18550 | 24.88086 | 37055 ft | 500 kts | 165° |
| 2026-05-08 01:58 | 40.12128 | 24.91581 | 37053 ft | 502 kts | 165° |
| 2026-05-08 01:59 | 40.05670 | 24.95090 | 37053 ft | 500 kts | 165° |
| 2026-05-08 01:59 | 39.99285 | 24.98565 | 37057 ft | 501 kts | 166° |
| 2026-05-08 02:00 | 39.92962 | 25.02394 | 37062 ft | 510 kts | 158° |
| 2026-05-08 02:00 | 39.86864 | 25.07204 | 37063 ft | 514 kts | 154° |
| 2026-05-08 02:01 | 39.80903 | 25.12293 | 37064 ft | 516 kts | 153° |
| 2026-05-08 02:01 | 39.74897 | 25.17392 | 37067 ft | 516 kts | 154° |
| 2026-05-08 02:02 | 39.68858 | 25.22428 | 37067 ft | 516 kts | 154° |
| 2026-05-08 02:02 | 39.62814 | 25.27405 | 37067 ft | 514 kts | 154° |
| 2026-05-08 02:03 | 39.56755 | 25.32361 | 37070 ft | 517 kts | 154° |
| 2026-05-08 02:03 | 39.50701 | 25.37299 | 37069 ft | 516 kts | 154° |
| 2026-05-08 02:04 | 39.44613 | 25.42249 | 37070 ft | 518 kts | 154° |
| 2026-05-08 02:04 | 39.38533 | 25.47184 | 37075 ft | 519 kts | 154° |
| 2026-05-08 02:05 | 39.32423 | 25.52135 | 37078 ft | 520 kts | 154° |
| 2026-05-08 02:05 | 39.26240 | 25.57129 | 37076 ft | 527 kts | 153° |
| 2026-05-08 02:06 | 39.20032 | 25.62141 | 37079 ft | 525 kts | 153° |
| 2026-05-08 02:06 | 39.13874 | 25.67110 | 37079 ft | 524 kts | 154° |
| 2026-05-08 02:07 | 39.07659 | 25.72107 | 37083 ft | 528 kts | 154° |
| 2026-05-08 02:07 | 39.01471 | 25.77071 | 37085 ft | 526 kts | 154° |
| 2026-05-08 02:08 | 38.95264 | 25.82038 | 37090 ft | 528 kts | 154° |
| 2026-05-08 02:08 | 38.89049 | 25.87000 | 37088 ft | 528 kts | 154° |
| 2026-05-08 02:09 | 38.82798 | 25.91986 | 37093 ft | 529 kts | 154° |
| 2026-05-08 02:09 | 38.76554 | 25.96952 | 37095 ft | 530 kts | 154° |
| 2026-05-08 02:10 | 38.70267 | 26.01943 | 37099 ft | 530 kts | 153° |
| 2026-05-08 02:10 | 38.64000 | 26.06910 | 37110 ft | 531 kts | 153° |
| 2026-05-08 02:11 | 38.57768 | 26.11844 | 37116 ft | 532 kts | 153° |
| 2026-05-08 02:11 | 38.51479 | 26.16802 | 37116 ft | 530 kts | 153° |
| 2026-05-08 02:12 | 38.45196 | 26.21744 | 37107 ft | 533 kts | 154° |
| 2026-05-08 02:12 | 38.38871 | 26.26709 | 37106 ft | 534 kts | 153° |
| 2026-05-08 02:13 | 38.32588 | 26.31628 | 37109 ft | 533 kts | 153° |
| 2026-05-08 02:13 | 38.26787 | 26.36173 | 37003 ft | 517 kts | 153° |
| 2026-05-08 02:14 | 38.24146 | 26.38246 | 36683 ft | 512 kts | 153° |
| 2026-05-08 02:14 | 38.21155 | 26.40588 | 36130 ft | 511 kts | 153° |
| 2026-05-08 02:14 | 38.18147 | 26.42935 | 35569 ft | 509 kts | 154° |
| 2026-05-08 02:14 | 38.15115 | 26.45296 | 35000 ft | 508 kts | 153° |
| 2026-05-08 02:15 | 38.12102 | 26.47641 | 34463 ft | 506 kts | 153° |
| 2026-05-08 02:15 | 38.09102 | 26.49971 | 33929 ft | 505 kts | 154° |
| 2026-05-08 02:15 | 38.06151 | 26.52261 | 33450 ft | 504 kts | 153° |
| 2026-05-08 02:15 | 38.03139 | 26.54595 | 32952 ft | 503 kts | 153° |
| 2026-05-08 02:16 | 38.00177 | 26.56888 | 32430 ft | 502 kts | 153° |
| 2026-05-08 02:16 | 37.97206 | 26.59186 | 31909 ft | 502 kts | 153° |
| 2026-05-08 02:16 | 37.94223 | 26.61490 | 31384 ft | 501 kts | 152° |
| 2026-05-08 02:16 | 37.91273 | 26.63768 | 30862 ft | 500 kts | 152° |
| 2026-05-08 02:17 | 37.88326 | 26.66042 | 30343 ft | 499 kts | 152° |
| 2026-05-08 02:17 | 37.85382 | 26.68314 | 29820 ft | 496 kts | 152° |
| 2026-05-08 02:17 | 37.82423 | 26.70597 | 29303 ft | 494 kts | 152° |
| 2026-05-08 02:17 | 37.79524 | 26.72829 | 28799 ft | 492 kts | 152° |
| 2026-05-08 02:18 | 37.76614 | 26.75066 | 28295 ft | 490 kts | 152° |
| 2026-05-08 02:18 | 37.73695 | 26.77310 | 27784 ft | 487 kts | 152° |
| 2026-05-08 02:18 | 37.70807 | 26.79527 | 27275 ft | 484 kts | 152° |
| 2026-05-08 02:18 | 37.67965 | 26.81709 | 26772 ft | 482 kts | 152° |
| 2026-05-08 02:19 | 37.65086 | 26.83916 | 26265 ft | 479 kts | 152° |
| 2026-05-08 02:19 | 37.62269 | 26.86070 | 25763 ft | 476 kts | 152° |
| 2026-05-08 02:19 | 37.59457 | 26.88220 | 25260 ft | 473 kts | 152° |
| 2026-05-08 02:19 | 37.56648 | 26.90366 | 24755 ft | 470 kts | 152° |
| 2026-05-08 02:20 | 37.53865 | 26.92490 | 24260 ft | 467 kts | 152° |
| 2026-05-08 02:20 | 37.51082 | 26.94613 | 23761 ft | 464 kts | 151° |
| 2026-05-08 02:20 | 37.48345 | 26.96700 | 23265 ft | 461 kts | 151° |
| 2026-05-08 02:20 | 37.45596 | 26.98793 | 22769 ft | 458 kts | 151° |
| 2026-05-08 02:21 | 37.42917 | 27.00831 | 22286 ft | 454 kts | 151° |
| 2026-05-08 02:21 | 37.40226 | 27.02876 | 21783 ft | 451 kts | 151° |
| 2026-05-08 02:21 | 37.37552 | 27.04907 | 21241 ft | 449 kts | 151° |
| 2026-05-08 02:21 | 37.34877 | 27.06936 | 20696 ft | 447 kts | 150° |
| 2026-05-08 02:22 | 37.32204 | 27.08963 | 20150 ft | 445 kts | 150° |
| 2026-05-08 02:22 | 37.29580 | 27.10953 | 19610 ft | 443 kts | 150° |
| 2026-05-08 02:22 | 37.26965 | 27.12934 | 19075 ft | 441 kts | 150° |
| 2026-05-08 02:22 | 37.24362 | 27.14906 | 18538 ft | 438 kts | 150° |
| 2026-05-08 02:23 | 37.21748 | 27.16886 | 17991 ft | 435 kts | 150° |
| 2026-05-08 02:23 | 37.19187 | 27.18825 | 17464 ft | 432 kts | 150° |
| 2026-05-08 02:23 | 37.16597 | 27.20782 | 16925 ft | 430 kts | 150° |
| 2026-05-08 02:23 | 37.14043 | 27.22711 | 16391 ft | 427 kts | 149° |
| 2026-05-08 02:24 | 37.11535 | 27.24604 | 15870 ft | 424 kts | 150° |
| 2026-05-08 02:24 | 37.09011 | 27.26505 | 15323 ft | 422 kts | 149° |
| 2026-05-08 02:24 | 37.06514 | 27.28384 | 14778 ft | 419 kts | 149° |
| 2026-05-08 02:24 | 37.04019 | 27.30259 | 14251 ft | 417 kts | 149° |
| 2026-05-08 02:25 | 37.01526 | 27.32132 | 13615 ft | 416 kts | 149° |
| 2026-05-08 02:25 | 36.99042 | 27.33995 | 13014 ft | 414 kts | 149° |
| 2026-05-08 02:25 | 36.96612 | 27.35819 | 12440 ft | 412 kts | 149° |
| 2026-05-08 02:25 | 36.94136 | 27.37677 | 11848 ft | 410 kts | 149° |
| 2026-05-08 02:26 | 36.91723 | 27.39486 | 11274 ft | 408 kts | 148° |
| 2026-05-08 02:26 | 36.89283 | 27.41311 | 10662 ft | 406 kts | 148° |
| 2026-05-08 02:26 | 36.86879 | 27.43110 | 10222 ft | 399 kts | 148° |
| 2026-05-08 02:26 | 36.84539 | 27.44857 | 10134 ft | 383 kts | 148° |
| 2026-05-08 02:27 | 36.82303 | 27.46528 | 10121 ft | 366 kts | 148° |
| 2026-05-08 02:27 | 36.80188 | 27.48109 | 10121 ft | 350 kts | 148° |
| 2026-05-08 02:27 | 36.78136 | 27.49642 | 10118 ft | 335 kts | 148° |
| 2026-05-08 02:27 | 36.76175 | 27.51106 | 10106 ft | 321 kts | 148° |
| 2026-05-08 02:28 | 36.74280 | 27.52519 | 10034 ft | 311 kts | 148° |
| 2026-05-08 02:28 | 36.72450 | 27.53884 | 9787 ft | 307 kts | 148° |
| 2026-05-08 02:28 | 36.70620 | 27.55249 | 9479 ft | 306 kts | 147° |
| 2026-05-08 02:28 | 36.68978 | 27.56914 | 9163 ft | 302 kts | 127° |
| 2026-05-08 02:29 | 36.67960 | 27.59151 | 8909 ft | 295 kts | 109° |
| 2026-05-08 02:29 | 36.67280 | 27.61529 | 8688 ft | 290 kts | 105° |
| 2026-05-08 02:29 | 36.66670 | 27.63876 | 8468 ft | 285 kts | 105° |
| 2026-05-08 02:29 | 36.66069 | 27.66213 | 8248 ft | 281 kts | 105° |
| 2026-05-08 02:30 | 36.65483 | 27.68515 | 8028 ft | 277 kts | 105° |
| 2026-05-08 02:30 | 36.64941 | 27.70789 | 7785 ft | 274 kts | 102° |
| 2026-05-08 02:30 | 36.64495 | 27.73078 | 7539 ft | 271 kts | 101° |
| 2026-05-08 02:30 | 36.64084 | 27.75369 | 7293 ft | 269 kts | 100° |
| 2026-05-08 02:31 | 36.63681 | 27.77623 | 7050 ft | 266 kts | 100° |
| 2026-05-08 02:31 | 36.63281 | 27.79868 | 6803 ft | 264 kts | 100° |
| 2026-05-08 02:31 | 36.62888 | 27.82081 | 6560 ft | 262 kts | 101° |
| 2026-05-08 02:31 | 36.62502 | 27.84265 | 6320 ft | 260 kts | 100° |
| 2026-05-08 02:32 | 36.62113 | 27.86474 | 6070 ft | 258 kts | 101° |
| 2026-05-08 02:32 | 36.61739 | 27.88631 | 5824 ft | 256 kts | 100° |
| 2026-05-08 02:32 | 36.61366 | 27.90811 | 5579 ft | 255 kts | 100° |
| 2026-05-08 02:32 | 36.61000 | 27.92951 | 5336 ft | 253 kts | 101° |
| 2026-05-08 02:33 | 36.60641 | 27.95059 | 5091 ft | 251 kts | 100° |
| 2026-05-08 02:33 | 36.60278 | 27.97176 | 4845 ft | 250 kts | 101° |
| 2026-05-08 02:33 | 36.59917 | 27.99304 | 4599 ft | 249 kts | 101° |
| 2026-05-08 02:33 | 36.59564 | 28.01383 | 4355 ft | 247 kts | 101° |
| 2026-05-08 02:34 | 36.59211 | 28.03471 | 4106 ft | 246 kts | 100° |
| 2026-05-08 02:34 | 36.58859 | 28.05563 | 3857 ft | 245 kts | 100° |
| 2026-05-08 02:34 | 36.58509 | 28.07613 | 3651 ft | 243 kts | 100° |
| 2026-05-08 02:34 | 36.58157 | 28.09658 | 3477 ft | 239 kts | 101° |
| 2026-05-08 02:35 | 36.57814 | 28.11659 | 3303 ft | 235 kts | 100° |
| 2026-05-08 02:35 | 36.57478 | 28.13636 | 3127 ft | 232 kts | 100° |
| 2026-05-08 02:35 | 36.57148 | 28.15573 | 2960 ft | 227 kts | 100° |
| 2026-05-08 02:35 | 36.56829 | 28.17455 | 2832 ft | 217 kts | 100° |
| 2026-05-08 02:36 | 36.56524 | 28.19237 | 2745 ft | 206 kts | 100° |
| 2026-05-08 02:36 | 36.56211 | 28.20924 | 2661 ft | 197 kts | 108° |
| 2026-05-08 02:36 | 36.55373 | 28.22198 | 2591 ft | 192 kts | 151° |
| 2026-05-08 02:36 | 36.54126 | 28.22806 | 2485 ft | 195 kts | 161° |
| 2026-05-08 02:37 | 36.52852 | 28.23351 | 2319 ft | 192 kts | 160° |
| 2026-05-08 02:37 | 36.51598 | 28.23897 | 2180 ft | 187 kts | 160° |
| 2026-05-08 02:37 | 36.50384 | 28.24428 | 2049 ft | 182 kts | 160° |
| 2026-05-08 02:37 | 36.49191 | 28.24944 | 2021 ft | 181 kts | 163° |
| 2026-05-08 02:38 | 36.47936 | 28.25044 | 2024 ft | 182 kts | 188° |
| 2026-05-08 02:38 | 36.46712 | 28.24667 | 2014 ft | 181 kts | 205° |
| 2026-05-08 02:38 | 36.45582 | 28.23965 | 2016 ft | 180 kts | 212° |
| 2026-05-08 02:38 | 36.44757 | 28.22843 | 2026 ft | 178 kts | 246° |
| 2026-05-08 02:39 | 36.44295 | 28.21421 | 1931 ft | 180 kts | 251° |
| 2026-05-08 02:39 | 36.43864 | 28.19957 | 1668 ft | 182 kts | 251° |
| 2026-05-08 02:39 | 36.43435 | 28.18488 | 1434 ft | 177 kts | 251° |
| 2026-05-08 02:39 | 36.43030 | 28.17105 | 1205 ft | 165 kts | 251° |
| 2026-05-08 02:40 | 36.42650 | 28.15805 | 956 ft | 155 kts | 251° |
| 2026-05-08 02:40 | 36.42283 | 28.14554 | 774 ft | 153 kts | 251° |
| 2026-05-08 02:40 | 36.41918 | 28.13322 | 589 ft | 154 kts | 249° |
| 2026-05-08 02:40 | 36.41553 | 28.12067 | 375 ft | 156 kts | 251° |
| 2026-05-08 02:41 | 36.41182 | 28.10819 | 166 ft | 154 kts | 250° |
| 2026-05-08 02:41 | 36.40826 | 28.09604 | 32 ft | 140 kts | 250° |
| 2026-05-08 02:41 | 36.40561 | 28.08706 | 31 ft | 82 kts | 250° |
| 2026-05-08 02:41 | 36.40420 | 28.08226 | 31 ft | 39 kts | 250° |
| 2026-05-08 02:42 | 36.40334 | 28.08013 | 31 ft | 22 kts | 224° |
| 2026-05-08 02:42 | 36.40236 | 28.07912 | 31 ft | 16 kts | 217° |
| 2026-05-08 02:42 | 36.40157 | 28.07894 | 31 ft | 11 kts | 132° |
| 2026-05-08 02:42 | 36.40168 | 28.07987 | 31 ft | 12 kts | 69° |
| 2026-05-08 02:43 | 36.40206 | 28.08109 | 31 ft | 18 kts | 71° |
| 2026-05-08 02:43 | 36.40255 | 28.08281 | 31 ft | 23 kts | 70° |
| 2026-05-08 02:43 | 36.40312 | 28.08478 | 31 ft | 24 kts | 70° |
| 2026-05-08 02:43 | 36.40370 | 28.08669 | 31 ft | 23 kts | 69° |
| 2026-05-08 02:44 | 36.40395 | 28.08778 | 31 ft | 8 kts | 109° |
| 2026-05-08 02:44 | 36.40347 | 28.08817 | 31 ft | 7 kts | 151° |
| 2026-05-08 02:44 | 36.40340 | 28.08872 | 31 ft | 7 kts | 68° |
| 2026-05-08 02:44 | 36.40357 | 28.08925 | 31 ft | 7 kts | 68° |
| 2026-05-08 02:45 | 36.40377 | 28.08991 | 31 ft | 8 kts | 70° |
| 2026-05-08 02:45 | 36.40371 | 28.09047 | 31 ft | 6 kts | 149° |
| 2026-05-08 02:45 | 36.40337 | 28.09062 | 31 ft | 0 kts | 159° |
| 2026-05-08 02:45 | 36.40334 | 28.09063 | 31 ft | 0 kts | 173° |
| 2026-05-08 02:46 | 36.40324 | 28.09053 | 31 ft | 2 kts | 248° |
| 2026-05-08 02:46 | 36.40327 | 28.09036 | 31 ft | 1 kts | 290° |
| 2026-05-08 02:46 | 36.40328 | 28.09033 | 31 ft | 0 kts | 291° |